Time;durP1;ratioP1;P1;durP2;ratioP2;P2;SDS_P1;SDS_P2;PMS_P1;PMS_P2;Temp;Humidity;BMP_temperature;BMP_pressure;BME280_temperature;BME280_humidity;BME280_pressure;Samples;Min_cycle;Max_cycle;Signal;HPM_P1;HPM_P2
2023/07/21 00:00:14;;;;;;;5.05;2.33;;;;;;;30.25;39.61;99164.72;4859013;29;20041;-45
2023/07/21 00:02:41;;;;;;;5.75;2.38;;;;;;;30.19;39.70;99178.69;4859160;29;20112;-43
2023/07/21 00:05:07;;;;;;;3.92;2.28;;;;;;;30.29;39.46;99171.94;4859181;29;20025;-46
2023/07/21 00:07:32;;;;;;;5.35;2.15;;;;;;;30.52;39.11;99165.88;4859210;29;20025;-44
2023/07/21 00:09:59;;;;;;;5.07;2.47;;;;;;;30.62;38.78;99173.63;4858987;29;20469;-43
2023/07/21 00:12:25;;;;;;;4.30;2.60;;;;;;;30.72;38.47;99172.31;4859488;29;20096;-44
2023/07/21 00:14:51;;;;;;;3.78;2.25;;;;;;;30.80;38.50;99174.09;4859313;29;20450;-42
2023/07/21 00:17:17;;;;;;;4.45;2.30;;;;;;;31.06;37.70;99168.09;4858982;29;20112;-44
2023/07/21 00:19:44;;;;;;;3.30;2.20;;;;;;;30.39;38.74;99174.19;4858917;29;20025;-43
2023/07/21 00:22:10;;;;;;;5.10;2.58;;;;;;;30.12;39.31;99174.94;4859392;29;20097;-43
2023/07/21 00:24:35;;;;;;;2.17;1.92;;;;;;;30.07;39.53;99166.97;4858998;29;20439;-46
2023/07/21 00:27:02;;;;;;;4.10;2.22;;;;;;;30.12;39.46;99175.78;4858887;29;20160;-43
2023/07/21 00:29:29;;;;;;;4.82;2.30;;;;;;;30.24;39.12;99171.38;4858696;29;20096;-47
2023/07/21 00:31:54;;;;;;;4.20;2.53;;;;;;;30.39;39.11;99171.44;4859071;29;20026;-44
2023/07/21 00:34:24;;;;;;;3.47;2.15;;;;;;;30.20;39.27;99168.53;4858806;29;20041;-43
2023/07/21 00:36:50;;;;;;;4.80;2.50;;;;;;;29.69;40.31;99170.94;4858601;29;20106;-43
2023/07/21 00:39:16;;;;;;;5.68;2.30;;;;;;;29.67;40.00;99171.28;4858989;29;20089;-43
2023/07/21 00:41:41;;;;;;;3.33;2.20;;;;;;;29.72;40.42;99168.31;4858927;29;20037;-43
2023/07/21 00:44:08;;;;;;;4.97;2.20;;;;;;;29.92;39.50;99163.81;4858738;29;20056;-45
2023/07/21 00:46:35;;;;;;;5.28;2.30;;;;;;;30.14;39.32;99169.91;4858865;29;20037;-44
2023/07/21 00:49:01;;;;;;;5.25;2.45;;;;;;;30.20;39.06;99163.84;4858457;29;20025;-42
2023/07/21 00:51:26;;;;;;;4.68;2.45;;;;;;;30.38;38.76;99172.59;4858953;29;20100;-43
2023/07/21 00:53:52;;;;;;;3.90;2.35;;;;;;;30.34;38.63;99155.22;4858496;29;20367;-45
2023/07/21 00:56:18;;;;;;;3.78;2.05;;;;;;;29.90;39.93;99168.84;4858577;29;20025;-43
2023/07/21 00:58:43;;;;;;;6.68;2.50;;;;;;;29.82;39.92;99167.84;4858712;29;20026;-41
2023/07/21 01:01:09;;;;;;;3.78;2.22;;;;;;;29.85;40.08;99169.09;4858398;29;20028;-46
2023/07/21 01:03:35;;;;;;;4.43;2.53;;;;;;;30.13;39.46;99171.06;4858583;29;20438;-46
2023/07/21 01:06:02;;;;;;;4.95;2.33;;;;;;;30.29;39.31;99169.19;4858069;29;20029;-46
2023/07/21 01:08:28;;;;;;;3.40;2.20;;;;;;;30.36;38.97;99165.88;4858483;29;20033;-44
2023/07/21 01:10:55;;;;;;;3.40;2.30;;;;;;;30.49;38.81;99158.38;4858052;29;20033;-42
2023/07/21 01:13:21;;;;;;;3.17;2.50;;;;;;;30.19;39.49;99170.47;4858194;29;20117;-45
2023/07/21 01:15:52;;;;;;;5.80;2.90;;;;;;;30.29;39.31;99163.69;4858153;29;20032;-43
2023/07/21 01:18:20;;;;;;;5.57;2.85;;;;;;;29.21;41.53;99168.69;4857849;29;20141;-45
2023/07/21 01:20:47;;;;;;;4.72;2.63;;;;;;;28.84;42.69;99168.63;4863595;29;20354;-45
2023/07/21 01:23:22;;;;;;;4.78;2.53;;;;;;;28.83;42.59;99168.94;4851203;29;20022;-46
2023/07/21 01:25:49;;;;;;;5.53;2.80;;;;;;;28.72;43.15;99173.25;4845787;29;20025;-44
2023/07/21 01:28:17;;;;;;;5.10;2.70;;;;;;;28.90;43.16;99171.13;4844714;29;20053;-42
2023/07/21 01:30:45;;;;;;;5.90;2.90;;;;;;;28.93;43.01;99175.91;4843738;29;20054;-44
2023/07/21 01:33:13;;;;;;;5.40;2.80;;;;;;;29.06;42.92;99172.06;4846132;29;20025;-43
2023/07/21 01:35:40;;;;;;;6.18;2.72;;;;;;;29.02;42.68;99173.88;4845975;29;20037;-45
2023/07/21 01:38:07;;;;;;;4.20;2.83;;;;;;;28.80;43.59;99175.09;4845709;29;20034;-44
2023/07/21 01:40:33;;;;;;;4.93;2.50;;;;;;;28.66;43.56;99165.25;4846058;29;20037;-45
2023/07/21 01:42:59;;;;;;;4.80;2.83;;;;;;;28.71;43.35;99158.78;4846144;29;20077;-43
2023/07/21 01:45:25;;;;;;;4.07;2.47;;;;;;;28.68;43.46;99175.09;4845658;29;20396;-44
2023/07/21 01:47:51;;;;;;;4.63;2.67;;;;;;;28.89;43.07;99177.75;4846131;29;20021;-44
2023/07/21 01:50:18;;;;;;;3.92;2.67;;;;;;;28.95;42.92;99168.16;4845776;29;20030;-45
2023/07/21 01:52:45;;;;;;;4.97;2.67;;;;;;;28.86;43.09;99176.47;4845625;29;20025;-44
2023/07/21 01:55:18;;;;;;;5.25;3.03;;;;;;;28.63;44.29;99185.06;4845553;29;20480;-43
2023/07/21 01:57:48;;;;;;;7.28;2.95;;;;;;;28.76;43.79;99194.13;4845689;29;20030;-43
2023/07/21 02:00:15;;;;;;;6.95;3.03;;;;;;;28.44;44.79;99195.72;4845445;29;20030;-44
2023/07/21 02:02:42;;;;;;;4.90;3.00;;;;;;;28.11;45.88;99204.69;4846087;29;20030;-43
2023/07/21 02:05:18;;;;;;;6.15;2.70;;;;;;;27.93;46.45;99203.19;4858055;29;20032;-44
2023/07/21 02:07:44;;;;;;;5.50;2.78;;;;;;;27.86;46.57;99200.97;4864031;29;20024;-44
2023/07/21 02:10:10;;;;;;;4.40;2.70;;;;;;;27.78;46.87;99202.63;4864297;29;20116;-45
2023/07/21 02:12:35;;;;;;;5.38;2.80;;;;;;;27.85;46.78;99197.44;4863679;29;20109;-42
2023/07/21 02:15:01;;;;;;;5.70;2.90;;;;;;;28.01;46.23;99194.94;4863941;29;20495;-43
2023/07/21 02:17:26;;;;;;;6.90;3.10;;;;;;;28.05;46.32;99197.81;4864019;29;20026;-43
2023/07/21 02:19:51;;;;;;;5.85;3.00;;;;;;;28.30;45.90;99206.16;4864052;29;20188;-45
2023/07/21 02:22:17;;;;;;;4.63;2.67;;;;;;;28.47;45.46;99206.78;4863811;29;20446;-44
2023/07/21 02:24:42;;;;;;;4.97;2.70;;;;;;;27.78;47.28;99215.47;4863843;29;20037;-42
2023/07/21 02:27:08;;;;;;;6.68;2.88;;;;;;;27.66;47.29;99218.94;4864320;29;20074;-43
2023/07/21 02:29:33;;;;;;;5.40;2.90;;;;;;;27.76;47.32;99212.28;4863662;29;20606;-41
2023/07/21 02:31:59;;;;;;;6.93;3.03;;;;;;;27.98;46.29;99216.69;4860733;29;20030;-42
2023/07/21 02:34:25;;;;;;;8.35;2.90;;;;;;;28.07;46.18;99215.47;4860735;29;20486;-44
2023/07/21 02:36:53;;;;;;;5.85;3.50;;;;;;;28.23;46.11;99228.56;4860638;29;20069;-45
2023/07/21 02:39:18;;;;;;;4.88;3.42;;;;;;;27.42;48.61;99228.53;4860753;29;20037;-46
2023/07/21 02:41:44;;;;;;;7.38;3.75;;;;;;;27.33;48.82;99227.78;4860711;29;20064;-47
2023/07/21 02:44:10;;;;;;;4.15;3.58;;;;;;;27.17;49.68;99230.22;4860758;29;20085;-43
2023/07/21 02:46:36;;;;;;;6.07;4.00;;;;;;;27.18;49.80;99226.34;4860985;29;20041;-44
2023/07/21 02:49:01;;;;;;;6.78;3.70;;;;;;;27.25;49.70;99237.59;4861036;29;20025;-47
2023/07/21 02:51:27;;;;;;;6.30;3.78;;;;;;;26.98;50.61;99238.78;4860716;29;20025;-41
2023/07/21 02:53:52;;;;;;;8.48;4.30;;;;;;;27.10;50.34;99243.56;4860627;29;20477;-41
2023/07/21 02:56:18;;;;;;;8.38;4.07;;;;;;;27.30;49.90;99242.91;4860596;29;20045;-41
2023/07/21 02:58:43;;;;;;;6.22;4.30;;;;;;;26.98;50.56;99241.53;4860271;29;20419;-43
2023/07/21 03:01:09;;;;;;;7.43;4.25;;;;;;;26.56;51.86;99251.34;4860488;29;20479;-41
2023/07/21 03:03:35;;;;;;;7.05;4.13;;;;;;;26.48;51.96;99231.13;4860321;29;20044;-44
2023/07/21 03:06:01;;;;;;;6.57;4.10;;;;;;;26.65;51.90;99244.78;4860369;29;20029;-41
2023/07/21 03:08:28;;;;;;;6.30;3.90;;;;;;;26.94;51.20;99251.50;4860235;29;20021;-43
2023/07/21 03:10:55;;;;;;;8.30;3.90;;;;;;;26.88;51.26;99259.06;4859913;29;20504;-45
2023/07/21 03:13:21;;;;;;;8.60;4.07;;;;;;;27.59;49.12;99259.66;4843283;29;20029;-42
2023/07/21 03:15:47;;;;;;;8.05;4.13;;;;;;;26.97;50.31;99259.03;4859626;29;20034;-42
2023/07/21 03:18:12;;;;;;;9.50;3.97;;;;;;;26.84;50.81;99258.06;4860038;29;20101;-43
2023/07/21 03:20:38;;;;;;;10.43;3.90;;;;;;;26.92;50.40;99254.53;4841182;29;20030;-43
2023/07/21 03:23:07;;;;;;;7.30;3.40;;;;;;;27.09;49.85;99259.16;4842061;29;20042;-44
2023/07/21 03:25:33;;;;;;;9.73;3.72;;;;;;;27.37;49.52;99260.72;4841724;29;20090;-44
2023/07/21 03:27:59;;;;;;;6.03;3.42;;;;;;;27.62;48.42;99258.97;4841733;29;20049;-42
2023/07/21 03:30:24;;;;;;;6.30;3.45;;;;;;;27.74;47.82;99264.56;4841802;29;20036;-44
2023/07/21 03:32:49;;;;;;;7.53;3.40;;;;;;;27.99;47.42;99259.31;4841411;29;20133;-41
2023/07/21 03:35:15;;;;;;;9.48;3.30;;;;;;;27.99;46.46;99267.50;4841313;29;20122;-45
2023/07/21 03:37:40;;;;;;;6.13;3.40;;;;;;;27.88;46.99;99269.78;4841479;29;20022;-42
2023/07/21 03:40:07;;;;;;;10.02;4.97;;;;;;;27.67;47.52;99275.19;4841535;29;20514;-44
2023/07/21 03:42:34;;;;;;;15.95;8.75;;;;;;;27.66;47.34;99268.13;4839998;29;20034;-46
2023/07/21 03:45:04;;;;;;;9.52;5.20;;;;;;;27.72;47.06;99272.28;4840883;29;20029;-43
2023/07/21 03:47:38;;;;;;;5.35;3.22;;;;;;;28.02;47.07;99275.03;4841171;29;20033;-43
2023/07/21 03:50:05;;;;;;;4.50;3.22;;;;;;;28.17;46.78;99285.38;4841169;29;20048;-43
2023/07/21 03:52:30;;;;;;;7.07;3.30;;;;;;;28.50;45.33;99275.66;4841387;29;20128;-45
2023/07/21 03:54:56;;;;;;;6.25;3.53;;;;;;;28.75;44.93;99276.59;4841350;29;20482;-42
2023/07/21 03:57:22;;;;;;;8.07;3.20;;;;;;;28.96;44.13;99277.38;4841049;29;20041;-42
2023/07/21 03:59:49;;;;;;;7.28;3.20;;;;;;;28.78;44.55;99286.88;4840893;29;20040;-45
2023/07/21 04:02:16;;;;;;;7.00;3.15;;;;;;;28.39;45.79;99278.81;4841588;29;20069;-42
2023/07/21 04:04:45;;;;;;;16.77;8.57;;;;;;;28.56;45.33;99285.28;4841508;29;20030;-41
2023/07/21 04:07:13;;;;;;;8.77;3.50;;;;;;;29.05;43.58;99285.47;4841247;29;20037;-43
2023/07/21 04:09:39;;;;;;;6.95;3.67;;;;;;;29.53;43.65;99291.41;4841191;29;20044;-43
2023/07/21 04:12:06;;;;;;;8.00;4.38;;;;;;;29.93;42.79;99286.09;4841124;29;20034;-44
2023/07/21 04:14:31;;;;;;;14.73;4.40;;;;;;;29.82;43.39;99291.22;4841160;29;20382;-42
2023/07/21 04:16:56;;;;;;;5.85;3.83;;;;;;;30.15;42.35;99294.97;4840501;29;20521;-44
2023/07/21 04:19:22;;;;;;;7.80;3.85;;;;;;;30.69;41.76;99297.38;4839680;29;20616;-43
2023/07/21 04:21:48;;;;;;;8.18;3.60;;;;;;;30.53;41.76;99296.50;4839860;29;20506;-43
2023/07/21 04:24:14;;;;;;;7.93;3.70;;;;;;;30.29;41.96;99300.91;4840078;29;20435;-43
2023/07/21 04:26:39;;;;;;;9.48;3.40;;;;;;;30.43;41.14;99297.81;4840316;29;20030;-43
2023/07/21 04:29:06;;;;;;;7.07;3.60;;;;;;;30.60;40.78;99302.22;4839818;29;20562;-42
2023/07/21 04:31:31;;;;;;;5.40;3.33;;;;;;;30.78;40.31;99303.50;4838995;29;20440;-44
2023/07/21 04:33:57;;;;;;;5.10;3.15;;;;;;;31.24;39.59;99307.88;4839916;29;20057;-43
2023/07/21 04:36:23;;;;;;;7.63;3.50;;;;;;;31.56;38.88;99308.72;4839978;29;20030;-43
2023/07/21 04:38:48;;;;;;;6.45;3.40;;;;;;;32.11;37.87;99317.13;4840122;29;20030;-43
2023/07/21 04:41:14;;;;;;;5.28;3.25;;;;;;;31.75;38.65;99319.81;4840557;29;20044;-43
2023/07/21 04:43:40;;;;;;;5.90;3.45;;;;;;;31.99;38.08;99319.94;4840346;29;20032;-42
2023/07/21 04:46:05;;;;;;;7.00;3.00;;;;;;;32.18;37.49;99316.47;4840631;29;20078;-43
2023/07/21 04:48:31;;;;;;;9.57;3.20;;;;;;;32.33;36.79;99316.47;4840527;29;20057;-43
2023/07/21 04:50:57;;;;;;;5.53;3.30;;;;;;;32.72;36.45;99323.97;4840478;29;20026;-42
2023/07/21 04:53:23;;;;;;;7.13;3.58;;;;;;;32.89;36.34;99322.72;4840636;29;20033;-42
2023/07/21 04:55:49;;;;;;;7.43;3.33;;;;;;;33.47;35.27;99324.59;4839926;29;20058;-43
2023/07/21 04:58:15;;;;;;;8.45;3.50;;;;;;;33.48;35.73;99329.75;4840000;29;20449;-45
2023/07/21 05:00:40;;;;;;;6.40;3.08;;;;;;;33.42;35.64;99328.47;4840251;29;20031;-44
2023/07/21 05:03:05;;;;;;;4.45;2.90;;;;;;;33.60;34.89;99327.97;4840114;29;20022;-44
2023/07/21 05:05:33;;;;;;;7.68;3.35;;;;;;;33.94;34.50;99328.13;4851811;29;20025;-43
2023/07/21 05:08:01;;;;;;;6.50;3.33;;;;;;;34.10;34.35;99328.78;4858716;29;20058;-43
2023/07/21 05:10:27;;;;;;;;;;;;;;;34.46;33.92;99337.56;4847893;29;20038;-41
2023/07/21 05:12:52;;;;;;;6.45;4.32;;;;;;;34.28;33.72;99338.13;4839795;29;19965;-43
2023/07/21 05:15:18;;;;;;;5.82;3.20;;;;;;;34.30;33.84;99342.50;4838716;29;20119;-43
2023/07/21 05:17:43;;;;;;;4.57;3.10;;;;;;;34.57;33.24;99344.03;4839368;29;20030;-42
2023/07/21 05:20:11;;;;;;;5.13;3.15;;;;;;;34.89;32.99;99335.38;4839184;29;20081;-43
2023/07/21 05:22:37;;;;;;;8.03;3.37;;;;;;;34.97;32.49;99341.78;4837951;29;20452;-43
2023/07/21 05:25:05;;;;;;;9.95;3.22;;;;;;;35.18;32.33;99336.50;4839198;29;20033;-42
2023/07/21 05:27:31;;;;;;;9.32;3.10;;;;;;;35.75;31.59;99343.75;4838130;29;20069;-42
2023/07/21 05:29:58;;;;;;;5.35;3.15;;;;;;;35.70;31.74;99346.88;4839060;29;20061;-43
2023/07/21 05:32:24;;;;;;;10.07;3.80;;;;;;;35.58;31.59;99345.16;4839025;29;20033;-43
2023/07/21 05:34:50;;;;;;;9.43;3.58;;;;;;;35.86;31.27;99352.16;4838888;29;20037;-43
2023/07/21 05:37:15;;;;;;;6.78;2.80;;;;;;;35.97;31.83;99351.03;4839091;29;20034;-45
2023/07/21 05:39:41;;;;;;;7.68;3.20;;;;;;;36.63;30.71;99357.75;4839363;29;20033;-47
2023/07/21 05:42:07;;;;;;;6.82;3.28;;;;;;;36.78;30.15;99354.72;4838203;29;20022;-45
2023/07/21 05:44:33;;;;;;;7.65;3.30;;;;;;;36.58;30.35;99359.72;4837923;29;20029;-44
2023/07/21 05:47:02;;;;;;;6.47;3.13;;;;;;;36.16;30.44;99363.03;4837887;29;20369;-44
2023/07/21 05:49:28;;;;;;;7.60;3.50;;;;;;;36.29;30.72;99366.28;4838171;29;20032;-43
2023/07/21 05:51:53;;;;;;;9.27;3.78;;;;;;;36.49;30.82;99364.84;4838273;29;20026;-44
2023/07/21 05:54:19;;;;;;;8.05;3.50;;;;;;;37.21;29.60;99362.38;4839027;29;20029;-42
2023/07/21 05:56:44;;;;;;;5.32;3.35;;;;;;;36.83;29.65;99359.06;4839115;29;20026;-43
2023/07/21 05:59:11;;;;;;;8.98;3.30;;;;;;;36.87;30.08;99356.31;4839483;29;20022;-44
2023/07/21 06:01:37;;;;;;;8.38;3.67;;;;;;;36.96;29.75;99365.06;4839393;29;20037;-44
2023/07/21 06:04:04;;;;;;;6.15;3.22;;;;;;;37.16;29.71;99352.44;4838725;29;20044;-45
2023/07/21 06:06:30;;;;;;;9.75;3.10;;;;;;;37.48;28.90;99354.47;4840033;29;20495;-46
2023/07/21 06:08:56;;;;;;;8.82;3.22;;;;;;;38.01;27.97;99363.25;4842496;29;20596;-45
2023/07/21 06:11:23;;;;;;;5.05;3.10;;;;;;;37.79;28.72;99359.69;4842739;29;20041;-45
2023/07/21 06:13:49;;;;;;;7.47;3.30;;;;;;;37.37;28.84;99367.53;4841992;29;20034;-46
2023/07/21 06:16:14;;;;;;;8.68;2.97;;;;;;;37.73;28.89;99359.28;4842409;29;20094;-44
2023/07/21 06:18:41;;;;;;;18.00;3.53;;;;;;;37.93;28.55;99366.00;4842132;29;20552;-44
2023/07/21 06:21:06;;;;;;;10.13;3.40;;;;;;;38.58;27.73;99365.13;4841528;29;20060;-45
2023/07/21 06:23:32;;;;;;;9.02;3.38;;;;;;;38.83;26.76;99357.47;4841929;29;20038;-45
2023/07/21 06:25:57;;;;;;;8.82;3.17;;;;;;;38.80;27.01;99361.06;4841570;29;20108;-45
2023/07/21 06:28:23;;;;;;;5.60;3.00;;;;;;;38.77;27.09;99359.09;4849506;29;20097;-43
2023/07/21 06:30:48;;;;;;;5.68;3.22;;;;;;;38.87;26.99;99347.13;4860011;29;20044;-43
2023/07/21 06:33:14;;;;;;;4.45;3.00;;;;;;;39.10;26.64;99354.97;4860160;29;20505;-43
2023/07/21 06:35:39;;;;;;;5.38;3.00;;;;;;;39.60;26.42;99345.50;4859932;29;20123;-43
2023/07/21 06:38:07;;;;;;;7.10;3.58;;;;;;;39.21;26.70;99348.56;4859559;29;20382;-44
2023/07/21 06:40:33;;;;;;;7.55;3.35;;;;;;;38.90;26.49;99343.53;4859803;29;20536;-43
2023/07/21 06:42:58;;;;;;;5.75;3.30;;;;;;;38.81;26.81;99343.19;4859524;29;20395;-43
2023/07/21 06:45:24;;;;;;;5.28;3.30;;;;;;;38.61;26.53;99337.31;4859710;29;20519;-43
2023/07/21 06:47:50;;;;;;;8.27;3.60;;;;;;;38.37;27.19;99352.88;4859146;29;20086;-44
2023/07/21 06:50:16;;;;;;;6.65;2.83;;;;;;;39.14;26.83;99349.38;4859390;29;20029;-45
2023/07/21 06:52:42;;;;;;;7.03;3.20;;;;;;;38.91;26.63;99350.66;4858988;29;20516;-44
2023/07/21 06:55:08;;;;;;;8.85;3.28;;;;;;;38.46;26.87;99338.53;4859110;29;20027;-47
2023/07/21 06:57:33;;;;;;;6.78;3.15;;;;;;;38.66;27.30;99342.47;4858828;29;20328;-47
2023/07/21 06:59:59;;;;;;;7.85;3.10;;;;;;;38.90;26.44;99342.75;4859292;29;20029;-47
2023/07/21 07:02:24;;;;;;;10.40;3.10;;;;;;;39.59;25.83;99345.91;4859841;29;20464;-45
2023/07/21 07:04:51;;;;;;;9.70;3.40;;;;;;;39.83;25.67;99349.66;4859099;29;20538;-45
2023/07/21 07:07:17;;;;;;;9.73;3.10;;;;;;;39.79;25.93;99343.34;4859382;29;20035;-45
2023/07/21 07:09:43;;;;;;;7.03;3.25;;;;;;;39.97;26.00;99348.78;4859406;29;20517;-45
2023/07/21 07:12:09;;;;;;;6.72;3.35;;;;;;;39.33;26.87;99341.72;4859387;29;20112;-43
2023/07/21 07:14:34;;;;;;;7.30;3.55;;;;;;;38.91;27.26;99336.75;4859083;29;20025;-45
2023/07/21 07:17:00;;;;;;;8.20;3.80;;;;;;;38.86;28.19;99334.44;4858634;29;20051;-45
2023/07/21 07:19:25;;;;;;;7.28;3.90;;;;;;;37.49;29.48;99333.88;4859192;29;20105;-44
2023/07/21 07:21:51;;;;;;;8.48;4.10;;;;;;;37.26;29.64;99344.53;4859251;29;20093;-43
2023/07/21 07:24:17;;;;;;;6.72;4.05;;;;;;;37.21;29.86;99342.19;4859834;29;20033;-44
2023/07/21 07:26:42;;;;;;;4.88;3.80;;;;;;;37.43;29.47;99338.22;4860096;29;20497;-45
2023/07/21 07:29:07;;;;;;;8.30;3.70;;;;;;;38.24;28.79;99344.16;4845595;29;20049;-44
2023/07/21 07:31:36;;;;;;;9.85;3.78;;;;;;;38.21;28.97;99338.63;4841633;29;20041;-41
2023/07/21 07:34:03;;;;;;;6.60;3.67;;;;;;;38.11;28.21;99352.13;4841410;29;20121;-42
2023/07/21 07:36:28;;;;;;;9.05;3.90;;;;;;;38.26;27.74;99349.31;4841786;29;20029;-44
2023/07/21 07:38:54;;;;;;;7.72;3.75;;;;;;;38.36;27.69;99347.72;4840963;29;20538;-44
2023/07/21 07:41:20;;;;;;;8.13;4.03;;;;;;;38.06;28.05;99352.53;4841266;29;20026;-44
2023/07/21 07:43:46;;;;;;;9.45;3.78;;;;;;;38.24;28.95;99338.59;4841291;29;20037;-44
2023/07/21 07:46:11;;;;;;;7.32;3.67;;;;;;;38.08;28.26;99350.16;4841285;29;20042;-43
2023/07/21 07:48:37;;;;;;;7.38;3.50;;;;;;;37.83;28.43;99341.81;4841360;29;20022;-42
2023/07/21 07:51:07;;;;;;;5.15;3.65;;;;;;;37.80;28.05;99350.94;4841422;29;20034;-43
2023/07/21 07:53:33;;;;;;;5.88;3.40;;;;;;;38.63;27.22;99342.47;4841390;29;20037;-42
2023/07/21 07:55:59;;;;;;;5.68;3.45;;;;;;;39.06;26.95;99348.63;4841068;29;20487;-44
2023/07/21 07:58:25;;;;;;;5.50;3.15;;;;;;;38.94;26.35;99346.31;4840949;29;20045;-44
2023/07/21 08:00:55;;;;;;;8.98;3.17;;;;;;;38.11;27.91;99351.34;4841096;29;20036;-43
2023/07/21 08:03:20;;;;;;;5.65;3.30;;;;;;;37.92;27.72;99350.53;4841071;29;20041;-44
2023/07/21 08:05:47;;;;;;;5.10;3.35;;;;;;;37.94;27.47;99342.59;4840870;29;20030;-42
2023/07/21 08:08:13;;;;;;;5.95;3.10;;;;;;;38.65;26.80;99345.63;4840875;29;20108;-43
2023/07/21 08:10:39;;;;;;;5.40;3.08;;;;;;;39.27;24.99;99344.91;4841018;29;20113;-44
2023/07/21 08:13:07;;;;;;;3.88;2.60;;;;;;;37.98;25.63;99347.38;4841026;29;20552;-46
2023/07/21 08:15:32;;;;;;;6.53;2.97;;;;;;;38.00;25.56;99353.31;4840783;29;20042;-42
2023/07/21 08:17:58;;;;;;;5.45;2.80;;;;;;;37.90;24.16;99346.56;4840756;29;20133;-43
2023/07/21 08:20:24;;;;;;;2.67;2.45;;;;;;;38.40;23.92;99352.03;4840611;29;20486;-41
2023/07/21 08:22:52;;;;;;;6.82;2.88;;;;;;;38.34;24.69;99353.66;4840770;29;20037;-43
2023/07/21 08:25:20;;;;;;;4.38;2.95;;;;;;;38.64;25.07;99350.41;4840669;29;20033;-42
2023/07/21 08:27:46;;;;;;;5.47;3.03;;;;;;;38.22;24.83;99362.44;4844356;29;20498;-42
2023/07/21 08:30:14;;;;;;;5.55;2.65;;;;;;;37.15;26.17;99350.88;4858873;29;20097;-44
2023/07/21 08:32:43;;;;;;;;;;;;;;;37.62;25.96;99355.72;4859405;29;20108;-43
2023/07/21 08:35:09;;;;;;;10.70;3.25;;;;;;;37.68;26.88;99346.59;4859156;29;19990;-43
2023/07/21 08:37:35;;;;;;;8.25;3.40;;;;;;;37.67;27.02;99347.78;4858500;29;20048;-44
2023/07/21 08:40:00;;;;;;;6.10;3.40;;;;;;;36.66;27.46;99359.81;4859016;29;20025;-43
2023/07/21 08:42:27;;;;;;;5.05;3.20;;;;;;;37.01;27.16;99338.94;4858841;29;20044;-43
2023/07/21 08:44:54;;;;;;;6.05;3.10;;;;;;;36.77;27.98;99350.34;4858616;29;20545;-43
2023/07/21 08:47:20;;;;;;;7.70;3.30;;;;;;;36.36;28.77;99346.94;4858595;29;20459;-42
2023/07/21 08:49:47;;;;;;;5.30;2.92;;;;;;;36.89;27.91;99343.66;4858347;29;20402;-44
2023/07/21 08:52:13;;;;;;;5.43;2.95;;;;;;;36.82;28.24;99351.94;4858560;29;20037;-43
2023/07/21 08:54:38;;;;;;;6.72;3.33;;;;;;;37.17;27.73;99345.72;4858697;29;20036;-45
2023/07/21 08:57:04;;;;;;;6.60;3.70;;;;;;;36.12;28.64;99345.59;4858158;29;20108;-44
2023/07/21 08:59:30;;;;;;;6.18;2.92;;;;;;;36.52;28.65;99346.63;4858586;29;20048;-45
2023/07/21 09:01:55;;;;;;;4.25;3.08;;;;;;;36.84;28.16;99352.31;4858699;29;20030;-43
2023/07/21 09:04:23;;;;;;;5.80;3.20;;;;;;;35.91;29.14;99354.53;4858661;29;20458;-43
2023/07/21 09:06:57;;;;;;;4.47;3.08;;;;;;;35.57;29.92;99346.34;4875185;29;20029;-44
2023/07/21 09:09:24;;;;;;;5.88;2.90;;;;;;;36.13;29.35;99336.91;4876566;29;20036;-43
2023/07/21 09:12:00;;;;;;;6.40;3.00;;;;;;;36.57;28.54;99335.19;4877048;29;20025;-43
2023/07/21 09:14:39;;;;;;;5.60;2.90;;;;;;;36.66;28.29;99343.19;4877242;29;20104;-45
2023/07/21 09:17:06;;;;;;;4.53;3.00;;;;;;;36.35;27.90;99345.38;4876980;29;20074;-42
2023/07/21 09:19:36;;;;;;;5.90;3.00;;;;;;;36.48;28.05;99337.50;4877034;29;20549;-43
2023/07/21 09:22:01;;;;;;;6.07;3.00;;;;;;;36.66;27.72;99338.41;4876065;29;20029;-44
2023/07/21 09:24:27;;;;;;;8.63;3.25;;;;;;;35.67;28.99;99342.09;4876706;29;20092;-41
2023/07/21 09:27:14;;;;;;;5.88;3.15;;;;;;;36.08;27.74;99325.41;4876905;29;20096;-43
2023/07/21 09:29:40;;;;;;;4.65;3.00;;;;;;;36.54;28.18;99341.53;4858556;29;20086;-42
2023/07/21 09:32:19;;;;;;;4.30;2.78;;;;;;;36.56;27.36;99344.69;4858935;29;20033;-42
2023/07/21 09:35:04;;;;;;;4.45;2.83;;;;;;;36.50;27.40;99327.66;4858706;29;20179;-45
2023/07/21 09:37:34;;;;;;;5.93;2.75;;;;;;;36.83;27.09;99325.81;4858270;29;20113;-42
2023/07/21 09:40:11;;;;;;;5.43;2.67;;;;;;;36.89;26.59;99320.69;4858931;29;20022;-44
2023/07/21 09:42:38;;;;;;;6.65;2.60;;;;;;;36.26;27.21;99318.03;4862300;29;20029;-43
2023/07/21 09:45:04;;;;;;;3.80;2.70;;;;;;;36.60;26.27;99320.56;4861679;29;20116;-42
2023/07/21 09:47:30;;;;;;;4.03;2.78;;;;;;;36.69;26.80;99323.78;4861884;29;20104;-43
2023/07/21 09:49:58;;;;;;;3.40;2.60;;;;;;;37.03;26.35;99306.06;4861558;29;20120;-42
2023/07/21 09:52:25;;;;;;;4.30;2.75;;;;;;;37.36;25.65;99311.28;4861519;29;20127;-42
2023/07/21 09:55:13;;;;;;;4.32;3.00;;;;;;;36.98;26.04;99316.34;4861524;29;20037;-42
2023/07/21 09:57:44;;;;;;;5.40;2.63;;;;;;;37.00;26.67;99298.53;4861591;29;20035;-42
2023/07/21 10:00:14;;;;;;;6.18;2.80;;;;;;;37.67;25.76;99295.06;4861839;29;20025;-44
2023/07/21 10:02:51;;;;;;;5.60;2.80;;;;;;;37.41;25.63;99296.22;4861894;29;20021;-41
2023/07/21 10:05:17;;;;;;;3.35;2.50;;;;;;;36.81;26.32;99308.00;4861990;29;20060;-43
2023/07/21 10:07:45;;;;;;;4.65;2.60;;;;;;;36.88;25.98;99305.22;4861887;29;20049;-43
2023/07/21 10:10:12;;;;;;;5.82;2.70;;;;;;;36.87;26.21;99300.88;4861795;29;20025;-43
2023/07/21 10:12:55;;;;;;;4.15;2.88;;;;;;;36.87;26.54;99300.88;4861855;29;20036;-42
2023/07/21 10:15:27;;;;;;;4.43;2.75;;;;;;;37.33;25.75;99298.19;4861783;29;20029;-42
2023/07/21 10:18:01;;;;;;;4.88;2.63;;;;;;;36.86;26.83;99308.41;4861275;29;20121;-46
2023/07/21 10:20:40;;;;;;;4.30;2.75;;;;;;;36.51;26.71;99307.06;4861578;29;20036;-42
2023/07/21 10:23:05;;;;;;;;;;;;;;;36.76;26.83;99293.31;4861873;29;20157;-45
2023/07/21 10:25:47;;;;;;;3.60;2.85;;;;;;;37.28;25.66;99293.06;4861747;29;20079;-43
2023/07/21 10:28:13;;;;;;;5.97;2.90;;;;;;;37.85;25.39;99286.72;4860845;29;20088;-42
2023/07/21 10:30:39;;;;;;;5.55;2.88;;;;;;;38.02;24.66;99273.16;4861321;29;20126;-44
2023/07/21 10:33:17;;;;;;;5.85;2.58;;;;;;;38.43;24.20;99283.78;4860841;29;20064;-42
2023/07/21 10:35:43;;;;;;;3.45;2.50;;;;;;;37.51;24.84;99276.00;4861192;29;20036;-45
2023/07/21 10:38:14;;;;;;;4.35;2.67;;;;;;;36.99;25.51;99275.53;4861042;29;20034;-43
2023/07/21 10:40:44;;;;;;;5.25;2.50;;;;;;;36.79;25.75;99283.44;4860984;29;20033;-43
2023/07/21 10:43:11;;;;;;;4.22;2.65;;;;;;;37.05;25.79;99281.50;4861354;29;20490;-42
2023/07/21 10:45:37;;;;;;;4.20;2.47;;;;;;;37.77;25.63;99281.56;4861202;29;20071;-43
2023/07/21 10:48:13;;;;;;;4.97;2.92;;;;;;;37.96;25.44;99286.66;4861326;29;20124;-42
2023/07/21 10:50:48;;;;;;;5.88;2.75;;;;;;;38.20;24.86;99287.84;4860621;29;20544;-44
2023/07/21 10:53:14;;;;;;;4.55;2.92;;;;;;;37.84;25.09;99282.34;4860158;29;20389;-43
2023/07/21 10:55:40;;;;;;;3.40;2.50;;;;;;;37.74;24.69;99272.06;4860717;29;20038;-45
2023/07/21 10:58:05;;;;;;;4.53;2.58;;;;;;;37.88;24.72;99272.00;4860792;29;20034;-44
2023/07/21 11:00:49;;;;;;;5.85;3.10;;;;;;;37.02;25.25;99266.44;4860617;29;20556;-44
2023/07/21 11:03:16;;;;;;;4.68;2.70;;;;;;;37.10;25.43;99281.91;4860420;29;20030;-46
2023/07/21 11:05:41;;;;;;;6.57;2.80;;;;;;;37.28;25.15;99267.28;4860530;29;20037;-44
2023/07/21 11:08:26;;;;;;;3.90;2.72;;;;;;;37.01;25.72;99262.09;4860246;29;20040;-45
2023/07/21 11:10:52;;;;;;;4.30;2.70;;;;;;;36.46;26.35;99263.13;4849307;29;20030;-43
2023/07/21 11:13:18;;;;;;;4.90;2.70;;;;;;;36.91;25.79;99247.03;4842678;29;20041;-43
2023/07/21 11:15:54;;;;;;;4.97;2.75;;;;;;;37.54;25.18;99252.22;4842753;29;20402;-46
2023/07/21 11:18:23;;;;;;;4.97;2.85;;;;;;;37.19;25.96;99248.28;4842787;29;20117;-45
2023/07/21 11:20:52;;;;;;;3.70;2.55;;;;;;;36.70;25.77;99242.22;4842102;29;20038;-44
2023/07/21 11:23:20;;;;;;;4.28;2.75;;;;;;;36.99;25.60;99256.13;4841969;29;20097;-42
2023/07/21 11:26:12;;;;;;;4.68;2.80;;;;;;;36.83;25.49;99233.56;4841638;29;20029;-42
2023/07/21 11:28:44;;;;;;;4.03;2.88;;;;;;;37.35;24.64;99236.78;4841572;29;20159;-42
2023/07/21 11:31:14;;;;;;;5.22;2.70;;;;;;;37.56;24.61;99225.66;4841605;29;20042;-43
2023/07/21 11:33:45;;;;;;;5.38;2.90;;;;;;;37.47;24.90;99230.03;4841734;29;20078;-42